sensor_id;sensor_type;location;lat;lon;timestamp;pressure;altitude;pressure_sealevel;temperature;humidity
72124;BME280;63818;37.134;-8.548;2023-04-01T00:04:16;102377.1;;;19.3;70.9
72124;BME280;63818;37.134;-8.548;2023-04-01T00:09:04;102377.9;;;19.3;71.0
72124;BME280;63818;37.134;-8.548;2023-04-01T00:13:50;102370.1;;;19.3;71.0
72124;BME280;63818;37.134;-8.548;2023-04-01T00:18:40;102371.5;;;19.2;71.1
72124;BME280;63818;37.134;-8.548;2023-04-01T00:23:26;102361.1;;;19.3;71.3
72124;BME280;63818;37.134;-8.548;2023-04-01T00:28:12;102364.6;;;19.3;70.9
72124;BME280;63818;37.134;-8.548;2023-04-01T00:32:59;102342.7;;;19.2;71.0
72124;BME280;63818;37.134;-8.548;2023-04-01T00:37:47;102356.9;;;19.2;70.8
72124;BME280;63818;37.134;-8.548;2023-04-01T00:42:33;102343.6;;;19.2;70.9
72124;BME280;63818;37.134;-8.548;2023-04-01T00:47:21;102340.9;;;19.2;70.2
72124;BME280;63818;37.134;-8.548;2023-04-01T00:52:11;102353.0;;;19.2;70.4
72124;BME280;63818;37.134;-8.548;2023-04-01T00:57:00;102352.6;;;19.2;69.9
72124;BME280;63818;37.134;-8.548;2023-04-01T01:01:47;102340.8;;;19.1;70.2
72124;BME280;63818;37.134;-8.548;2023-04-01T01:06:39;102324.5;;;19.1;70.1
72124;BME280;63818;37.134;-8.548;2023-04-01T01:11:32;102321.2;;;19.0;70.0
72124;BME280;63818;37.134;-8.548;2023-04-01T01:16:26;102312.9;;;19.0;70.0
72124;BME280;63818;37.134;-8.548;2023-04-01T01:22:36;102306.5;;;19.0;70.0
72124;BME280;63818;37.134;-8.548;2023-04-01T01:27:26;102312.1;;;18.9;70.2
72124;BME280;63818;37.134;-8.548;2023-04-01T01:32:22;102313.3;;;18.9;70.0
72124;BME280;63818;37.134;-8.548;2023-04-01T01:37:15;102321.8;;;18.9;70.3
72124;BME280;63818;37.134;-8.548;2023-04-01T01:42:06;102323.5;;;18.9;70.0
72124;BME280;63818;37.134;-8.548;2023-04-01T01:46:54;102313.8;;;18.8;70.5
72124;BME280;63818;37.134;-8.548;2023-04-01T01:51:46;102289.7;;;18.8;70.4
72124;BME280;63818;37.134;-8.548;2023-04-01T01:56:34;102293.6;;;18.8;70.0
72124;BME280;63818;37.134;-8.548;2023-04-01T02:01:25;102293.4;;;18.7;69.7
72124;BME280;63818;37.134;-8.548;2023-04-01T02:06:15;102298.6;;;18.7;69.7
72124;BME280;63818;37.134;-8.548;2023-04-01T02:11:05;102292.8;;;18.7;68.8
72124;BME280;63818;37.134;-8.548;2023-04-01T02:20:58;102290.0;;;18.6;67.9
72124;BME280;63818;37.134;-8.548;2023-04-01T02:25:46;102283.2;;;18.6;67.0
72124;BME280;63818;37.134;-8.548;2023-04-01T02:30:39;102285.6;;;18.6;66.6
72124;BME280;63818;37.134;-8.548;2023-04-01T02:35:29;102282.0;;;18.6;66.3
72124;BME280;63818;37.134;-8.548;2023-04-01T02:40:16;102285.8;;;18.5;66.9
72124;BME280;63818;37.134;-8.548;2023-04-01T02:45:08;102280.3;;;18.5;66.4
72124;BME280;63818;37.134;-8.548;2023-04-01T02:49:54;102283.8;;;18.4;66.0
72124;BME280;63818;37.134;-8.548;2023-04-01T02:54:44;102281.0;;;18.5;65.3
72124;BME280;63818;37.134;-8.548;2023-04-01T02:59:31;102264.6;;;18.5;64.7
72124;BME280;63818;37.134;-8.548;2023-04-01T03:04:17;102265.1;;;18.4;63.9
72124;BME280;63818;37.134;-8.548;2023-04-01T03:09:03;102259.3;;;18.4;63.5
72124;BME280;63818;37.134;-8.548;2023-04-01T03:13:52;102248.6;;;18.4;62.8
72124;BME280;63818;37.134;-8.548;2023-04-01T03:18:38;102248.2;;;18.3;62.3
72124;BME280;63818;37.134;-8.548;2023-04-01T03:23:24;102250.1;;;18.3;61.5
72124;BME280;63818;37.134;-8.548;2023-04-01T03:28:13;102232.3;;;18.3;60.4
72124;BME280;63818;37.134;-8.548;2023-04-01T03:33:01;102222.9;;;18.3;59.7
72124;BME280;63818;37.134;-8.548;2023-04-01T03:37:48;102225.0;;;18.3;58.5
72124;BME280;63818;37.134;-8.548;2023-04-01T03:42:38;102210.2;;;18.2;57.6
72124;BME280;63818;37.134;-8.548;2023-04-01T03:47:24;102207.5;;;18.2;56.7
72124;BME280;63818;37.134;-8.548;2023-04-01T03:52:11;102212.3;;;18.1;56.3
72124;BME280;63818;37.134;-8.548;2023-04-01T03:56:57;102219.0;;;18.2;55.2
72124;BME280;63818;37.134;-8.548;2023-04-01T04:01:43;102197.3;;;18.1;54.4
72124;BME280;63818;37.134;-8.548;2023-04-01T04:06:30;102201.9;;;18.1;54.2
72124;BME280;63818;37.134;-8.548;2023-04-01T04:11:22;102203.9;;;18.0;54.2
72124;BME280;63818;37.134;-8.548;2023-04-01T04:16:10;102194.3;;;18.0;54.1
72124;BME280;63818;37.134;-8.548;2023-04-01T04:20:58;102188.2;;;18.0;53.5
72124;BME280;63818;37.134;-8.548;2023-04-01T04:25:54;102202.3;;;18.0;54.2
72124;BME280;63818;37.134;-8.548;2023-04-01T04:30:40;102211.9;;;18.0;54.8
72124;BME280;63818;37.134;-8.548;2023-04-01T04:35:28;102218.0;;;18.1;55.3
72124;BME280;63818;37.134;-8.548;2023-04-01T04:40:19;102233.1;;;18.0;56.0
72124;BME280;63818;37.134;-8.548;2023-04-01T04:45:05;102241.0;;;18.0;56.3
72124;BME280;63818;37.134;-8.548;2023-04-01T04:49:54;102247.4;;;17.9;56.8
72124;BME280;63818;37.134;-8.548;2023-04-01T04:54:43;102245.5;;;18.0;57.0
72124;BME280;63818;37.134;-8.548;2023-04-01T04:59:30;102247.1;;;17.9;57.5
72124;BME280;63818;37.134;-8.548;2023-04-01T05:04:19;102260.8;;;18.0;57.4
72124;BME280;63818;37.134;-8.548;2023-04-01T05:09:05;102252.5;;;17.9;57.4
72124;BME280;63818;37.134;-8.548;2023-04-01T05:13:55;102263.7;;;17.8;58.1
72124;BME280;63818;37.134;-8.548;2023-04-01T05:18:47;102269.0;;;17.8;58.2
72124;BME280;63818;37.134;-8.548;2023-04-01T05:23:33;102282.1;;;17.8;58.1
72124;BME280;63818;37.134;-8.548;2023-04-01T05:28:20;102281.9;;;17.7;58.2
72124;BME280;63818;37.134;-8.548;2023-04-01T05:33:09;102277.8;;;17.8;58.3
72124;BME280;63818;37.134;-8.548;2023-04-01T05:37:55;102297.4;;;17.7;58.4
72124;BME280;63818;37.134;-8.548;2023-04-01T05:42:42;102291.4;;;17.8;58.5
72124;BME280;63818;37.134;-8.548;2023-04-01T05:47:30;102297.0;;;17.8;59.0
72124;BME280;63818;37.134;-8.548;2023-04-01T05:52:16;102307.7;;;17.8;59.4
72124;BME280;63818;37.134;-8.548;2023-04-01T05:57:07;102310.2;;;17.7;59.5
72124;BME280;63818;37.134;-8.548;2023-04-01T06:01:53;102310.4;;;17.8;60.2
72124;BME280;63818;37.134;-8.548;2023-04-01T06:11:32;102306.2;;;17.7;60.6
72124;BME280;63818;37.134;-8.548;2023-04-01T06:16:27;102314.4;;;17.7;60.8
72124;BME280;63818;37.134;-8.548;2023-04-01T06:21:42;102320.5;;;17.8;60.8
72124;BME280;63818;37.134;-8.548;2023-04-01T06:26:34;102325.2;;;17.7;61.2
72124;BME280;63818;37.134;-8.548;2023-04-01T06:31:41;102322.7;;;17.7;61.1
72124;BME280;63818;37.134;-8.548;2023-04-01T06:37:08;102326.5;;;17.7;61.2
72124;BME280;63818;37.134;-8.548;2023-04-01T06:42:10;102331.3;;;17.8;61.4
72124;BME280;63818;37.134;-8.548;2023-04-01T06:47:10;102337.2;;;17.8;61.4
72124;BME280;63818;37.134;-8.548;2023-04-01T06:52:01;102340.4;;;17.7;61.7
72124;BME280;63818;37.134;-8.548;2023-04-01T06:56:54;102343.0;;;17.7;61.8
72124;BME280;63818;37.134;-8.548;2023-04-01T07:01:47;102333.4;;;17.7;62.2
72124;BME280;63818;37.134;-8.548;2023-04-01T07:06:39;102351.3;;;17.7;61.7
72124;BME280;63818;37.134;-8.548;2023-04-01T07:11:32;102343.5;;;17.7;62.0
72124;BME280;63818;37.134;-8.548;2023-04-01T07:16:24;102355.9;;;17.7;62.8
72124;BME280;63818;37.134;-8.548;2023-04-01T07:21:25;102362.8;;;17.8;62.8
72124;BME280;63818;37.134;-8.548;2023-04-01T07:31:10;102377.7;;;17.8;62.8
72124;BME280;63818;37.134;-8.548;2023-04-01T07:36:03;102379.3;;;17.8;62.8
72124;BME280;63818;37.134;-8.548;2023-04-01T07:41:00;102376.6;;;17.8;63.4
72124;BME280;63818;37.134;-8.548;2023-04-01T07:45:57;102374.0;;;17.8;63.3
72124;BME280;63818;37.134;-8.548;2023-04-01T07:50:52;102382.2;;;17.8;62.8
72124;BME280;63818;37.134;-8.548;2023-04-01T07:55:53;102379.5;;;17.8;62.7
72124;BME280;63818;37.134;-8.548;2023-04-01T08:00:44;102378.1;;;17.9;62.4
72124;BME280;63818;37.134;-8.548;2023-04-01T08:05:41;102395.3;;;17.9;62.5
72124;BME280;63818;37.134;-8.548;2023-04-01T08:10:36;102394.4;;;17.9;62.3
72124;BME280;63818;37.134;-8.548;2023-04-01T08:15:28;102407.7;;;18.0;62.3
72124;BME280;63818;37.134;-8.548;2023-04-01T08:20:27;102419.0;;;18.0;61.8
72124;BME280;63818;37.134;-8.548;2023-04-01T08:25:20;102418.1;;;18.0;61.8
72124;BME280;63818;37.134;-8.548;2023-04-01T08:30:20;102429.6;;;18.1;62.1
72124;BME280;63818;37.134;-8.548;2023-04-01T08:35:17;102431.9;;;18.1;62.3
72124;BME280;63818;37.134;-8.548;2023-04-01T08:40:22;102426.1;;;18.2;62.3
72124;BME280;63818;37.134;-8.548;2023-04-01T08:45:21;102422.0;;;18.2;62.8
72124;BME280;63818;37.134;-8.548;2023-04-01T08:50:42;102415.1;;;18.2;63.1
72124;BME280;63818;37.134;-8.548;2023-04-01T08:55:37;102416.1;;;18.2;63.3
72124;BME280;63818;37.134;-8.548;2023-04-01T09:00:30;102413.5;;;18.3;63.4
72124;BME280;63818;37.134;-8.548;2023-04-01T09:07:24;102412.9;;;18.3;63.4
72124;BME280;63818;37.134;-8.548;2023-04-01T09:12:32;102409.5;;;18.3;63.0
72124;BME280;63818;37.134;-8.548;2023-04-01T09:17:37;102410.5;;;18.4;62.8
72124;BME280;63818;37.134;-8.548;2023-04-01T09:22:50;102402.5;;;18.4;62.5
72124;BME280;63818;37.134;-8.548;2023-04-01T09:27:47;102407.3;;;18.5;62.4
72124;BME280;63818;37.134;-8.548;2023-04-01T09:33:04;102401.2;;;18.5;62.2
72124;BME280;63818;37.134;-8.548;2023-04-01T09:38:04;102413.7;;;18.5;62.2
72124;BME280;63818;37.134;-8.548;2023-04-01T09:44:47;102420.4;;;18.5;62.2
72124;BME280;63818;37.134;-8.548;2023-04-01T09:49:43;102418.7;;;18.6;62.0
72124;BME280;63818;37.134;-8.548;2023-04-01T09:54:50;102416.0;;;18.6;62.4
72124;BME280;63818;37.134;-8.548;2023-04-01T10:01:07;102409.1;;;18.6;62.4
72124;BME280;63818;37.134;-8.548;2023-04-01T10:07:29;102405.6;;;18.7;63.2
72124;BME280;63818;37.134;-8.548;2023-04-01T10:13:08;102401.4;;;18.7;63.4
72124;BME280;63818;37.134;-8.548;2023-04-01T10:20:04;102407.2;;;18.7;64.3
72124;BME280;63818;37.134;-8.548;2023-04-01T10:27:30;102408.3;;;18.7;63.8
72124;BME280;63818;37.134;-8.548;2023-04-01T10:32:49;102418.4;;;18.7;64.6
72124;BME280;63818;37.134;-8.548;2023-04-01T10:39:19;102437.3;;;18.7;66.3
72124;BME280;63818;37.134;-8.548;2023-04-01T10:51:59;102420.1;;;18.8;68.2
72124;BME280;63818;37.134;-8.548;2023-04-01T10:56:50;102430.4;;;18.7;68.6
72124;BME280;63818;37.134;-8.548;2023-04-01T11:16:22;102397.2;;;19.0;68.7
72124;BME280;63818;37.134;-8.548;2023-04-01T11:21:39;102395.9;;;19.0;68.8
72124;BME280;63818;37.134;-8.548;2023-04-01T11:26:41;102393.0;;;19.1;69.1
72124;BME280;63818;37.134;-8.548;2023-04-01T11:31:58;102384.2;;;19.1;68.8
72124;BME280;63818;37.134;-8.548;2023-04-01T11:36:52;102373.6;;;19.1;69.0
72124;BME280;63818;37.134;-8.548;2023-04-01T11:41:47;102377.6;;;19.1;68.5
72124;BME280;63818;37.134;-8.548;2023-04-01T11:46:52;102375.9;;;19.2;67.1
72124;BME280;63818;37.134;-8.548;2023-04-01T11:51:57;102350.4;;;19.2;67.1
72124;BME280;63818;37.134;-8.548;2023-04-01T11:57:00;102350.5;;;19.2;66.4
72124;BME280;63818;37.134;-8.548;2023-04-01T12:01:59;102353.2;;;19.2;66.6
72124;BME280;63818;37.134;-8.548;2023-04-01T12:06:50;102355.2;;;19.2;66.5
72124;BME280;63818;37.134;-8.548;2023-04-01T12:11:45;102346.0;;;19.3;66.8
72124;BME280;63818;37.134;-8.548;2023-04-01T12:16:49;102341.8;;;19.3;66.0
72124;BME280;63818;37.134;-8.548;2023-04-01T12:21:50;102327.6;;;19.3;65.5
72124;BME280;63818;37.134;-8.548;2023-04-01T12:26:48;102320.2;;;19.4;65.6
72124;BME280;63818;37.134;-8.548;2023-04-01T12:31:45;102314.5;;;19.4;65.2
72124;BME280;63818;37.134;-8.548;2023-04-01T12:36:42;102311.0;;;19.4;65.3
72124;BME280;63818;37.134;-8.548;2023-04-01T12:41:39;102302.8;;;19.5;65.7
72124;BME280;63818;37.134;-8.548;2023-04-01T12:46:41;102332.0;;;19.6;65.5
72124;BME280;63818;37.134;-8.548;2023-04-01T12:51:38;102317.1;;;19.5;63.8
72124;BME280;63818;37.134;-8.548;2023-04-01T12:56:38;102301.8;;;19.5;64.1
72124;BME280;63818;37.134;-8.548;2023-04-01T13:01:50;102291.9;;;19.6;64.0
72124;BME280;63818;37.134;-8.548;2023-04-01T13:06:47;102295.1;;;19.6;63.4
72124;BME280;63818;37.134;-8.548;2023-04-01T13:11:44;102285.8;;;19.6;63.4
72124;BME280;63818;37.134;-8.548;2023-04-01T13:16:37;102290.5;;;19.6;63.6
72124;BME280;63818;37.134;-8.548;2023-04-01T13:21:34;102282.8;;;19.6;62.7
72124;BME280;63818;37.134;-8.548;2023-04-01T13:26:29;102257.6;;;19.8;62.3
72124;BME280;63818;37.134;-8.548;2023-04-01T13:31:26;102266.4;;;19.8;62.9
72124;BME280;63818;37.134;-8.548;2023-04-01T13:36:28;102246.8;;;19.8;62.7
72124;BME280;63818;37.134;-8.548;2023-04-01T13:41:25;102255.7;;;19.9;62.8
72124;BME280;63818;37.134;-8.548;2023-04-01T13:46:27;102255.4;;;19.9;62.5
72124;BME280;63818;37.134;-8.548;2023-04-01T13:51:55;102239.5;;;19.9;62.5
72124;BME280;63818;37.134;-8.548;2023-04-01T13:56:50;102246.0;;;20.0;62.4
72124;BME280;63818;37.134;-8.548;2023-04-01T14:01:42;102234.0;;;20.0;63.3
72124;BME280;63818;37.134;-8.548;2023-04-01T14:06:40;102248.4;;;20.0;63.2
72124;BME280;63818;37.134;-8.548;2023-04-01T14:11:40;102240.7;;;20.0;61.6
72124;BME280;63818;37.134;-8.548;2023-04-01T14:17:00;102217.2;;;20.1;62.5
72124;BME280;63818;37.134;-8.548;2023-04-01T14:21:54;102211.0;;;20.1;61.8
72124;BME280;63818;37.134;-8.548;2023-04-01T14:27:00;102224.6;;;20.1;61.7
72124;BME280;63818;37.134;-8.548;2023-04-01T14:31:58;102233.7;;;20.1;62.2
72124;BME280;63818;37.134;-8.548;2023-04-01T14:36:55;102208.1;;;20.2;61.5
72124;BME280;63818;37.134;-8.548;2023-04-01T14:41:48;102207.1;;;20.2;61.3
72124;BME280;63818;37.134;-8.548;2023-04-01T14:53:13;102213.9;;;20.4;61.0
72124;BME280;63818;37.134;-8.548;2023-04-01T14:58:11;102184.8;;;20.4;61.8
72124;BME280;63818;37.134;-8.548;2023-04-01T15:03:06;102187.4;;;20.5;62.3
72124;BME280;63818;37.134;-8.548;2023-04-01T15:08:14;102183.7;;;20.6;61.8
72124;BME280;63818;37.134;-8.548;2023-04-01T15:13:07;102187.6;;;20.7;61.3
72124;BME280;63818;37.134;-8.548;2023-04-01T15:18:02;102210.3;;;21.0;60.5
72124;BME280;63818;37.134;-8.548;2023-04-01T15:22:59;102196.8;;;21.0;60.7
72124;BME280;63818;37.134;-8.548;2023-04-01T15:32:50;102171.7;;;21.5;58.5
72124;BME280;63818;37.134;-8.548;2023-04-01T15:37:45;102168.6;;;21.6;56.9
72124;BME280;63818;37.134;-8.548;2023-04-01T15:42:44;102159.6;;;21.6;57.3
72124;BME280;63818;37.134;-8.548;2023-04-01T15:48:00;102162.6;;;21.8;56.2
72124;BME280;63818;37.134;-8.548;2023-04-01T15:52:59;102143.7;;;21.9;56.5
72124;BME280;63818;37.134;-8.548;2023-04-01T15:57:56;102147.6;;;21.9;56.6
72124;BME280;63818;37.134;-8.548;2023-04-01T16:02:51;102122.8;;;22.1;56.3
72124;BME280;63818;37.134;-8.548;2023-04-01T16:07:43;102138.8;;;22.2;56.4
72124;BME280;63818;37.134;-8.548;2023-04-01T16:12:46;102127.7;;;22.3;55.6
72124;BME280;63818;37.134;-8.548;2023-04-01T16:18:31;102137.3;;;22.4;54.5
72124;BME280;63818;37.134;-8.548;2023-04-01T16:23:24;102121.7;;;22.4;54.3
72124;BME280;63818;37.134;-8.548;2023-04-01T16:28:22;102135.6;;;22.4;54.1
72124;BME280;63818;37.134;-8.548;2023-04-01T16:33:14;102121.6;;;22.4;54.8
72124;BME280;63818;37.134;-8.548;2023-04-01T16:43:10;102106.6;;;22.5;55.4
72124;BME280;63818;37.134;-8.548;2023-04-01T16:48:01;102110.5;;;22.5;55.0
72124;BME280;63818;37.134;-8.548;2023-04-01T16:53:01;102130.8;;;22.5;54.8
72124;BME280;63818;37.134;-8.548;2023-04-01T16:57:52;102113.5;;;22.4;55.1
72124;BME280;63818;37.134;-8.548;2023-04-01T17:02:47;102127.0;;;22.4;55.3
72124;BME280;63818;37.134;-8.548;2023-04-01T17:07:44;102127.6;;;22.3;56.3
72124;BME280;63818;37.134;-8.548;2023-04-01T17:12:36;102138.1;;;22.3;56.9
72124;BME280;63818;37.134;-8.548;2023-04-01T17:18:13;102141.9;;;22.2;56.3
72124;BME280;63818;37.134;-8.548;2023-04-01T17:23:08;102151.4;;;22.1;56.2
72124;BME280;63818;37.134;-8.548;2023-04-01T17:27:59;102151.4;;;22.0;56.6
72124;BME280;63818;37.134;-8.548;2023-04-01T17:32:57;102169.9;;;21.9;56.3
72124;BME280;63818;37.134;-8.548;2023-04-01T17:37:57;102176.2;;;21.8;57.2
72124;BME280;63818;37.134;-8.548;2023-04-01T17:42:52;102181.4;;;21.7;57.9
72124;BME280;63818;37.134;-8.548;2023-04-01T17:47:48;102185.4;;;21.7;57.4
72124;BME280;63818;37.134;-8.548;2023-04-01T17:52:44;102176.8;;;21.7;57.8
72124;BME280;63818;37.134;-8.548;2023-04-01T17:57:45;102178.6;;;21.7;58.3
72124;BME280;63818;37.134;-8.548;2023-04-01T18:02:41;102179.1;;;21.6;58.7
72124;BME280;63818;37.134;-8.548;2023-04-01T18:07:38;102204.6;;;21.5;58.8
72124;BME280;63818;37.134;-8.548;2023-04-01T18:12:32;102189.4;;;21.4;59.3
72124;BME280;63818;37.134;-8.548;2023-04-01T18:17:23;102180.5;;;21.3;59.7
72124;BME280;63818;37.134;-8.548;2023-04-01T18:22:23;102192.8;;;21.2;60.0
72124;BME280;63818;37.134;-8.548;2023-04-01T18:27:16;102194.6;;;21.2;60.4
72124;BME280;63818;37.134;-8.548;2023-04-01T18:32:26;102209.1;;;21.0;61.1
72124;BME280;63818;37.134;-8.548;2023-04-01T18:37:17;102212.8;;;21.0;61.5
72124;BME280;63818;37.134;-8.548;2023-04-01T18:42:14;102206.6;;;20.9;61.8
72124;BME280;63818;37.134;-8.548;2023-04-01T18:47:08;102195.0;;;20.8;61.8
72124;BME280;63818;37.134;-8.548;2023-04-01T18:51:59;102208.1;;;20.6;63.7
72124;BME280;63818;37.134;-8.548;2023-04-01T18:57:03;102205.7;;;20.5;62.8
72124;BME280;63818;37.134;-8.548;2023-04-01T19:02:02;102200.7;;;20.5;63.0
72124;BME280;63818;37.134;-8.548;2023-04-01T19:06:54;102217.9;;;20.5;62.8
72124;BME280;63818;37.134;-8.548;2023-04-01T19:11:45;102211.2;;;20.5;63.0
72124;BME280;63818;37.134;-8.548;2023-04-01T19:16:43;102205.3;;;20.5;63.2
72124;BME280;63818;37.134;-8.548;2023-04-01T19:21:37;102206.7;;;20.5;63.6
72124;BME280;63818;37.134;-8.548;2023-04-01T19:26:27;102201.4;;;20.4;63.9
72124;BME280;63818;37.134;-8.548;2023-04-01T19:31:40;102222.1;;;20.3;64.5
72124;BME280;63818;37.134;-8.548;2023-04-01T19:36:38;102221.7;;;20.3;65.3
72124;BME280;63818;37.134;-8.548;2023-04-01T19:41:40;102234.1;;;20.2;65.9
72124;BME280;63818;37.134;-8.548;2023-04-01T19:46:34;102247.2;;;20.2;66.2
72124;BME280;63818;37.134;-8.548;2023-04-01T19:51:28;102238.6;;;20.2;66.6
72124;BME280;63818;37.134;-8.548;2023-04-01T19:56:18;102246.1;;;20.1;66.9
72124;BME280;63818;37.134;-8.548;2023-04-01T20:01:09;102253.5;;;20.1;67.2
72124;BME280;63818;37.134;-8.548;2023-04-01T20:06:07;102251.9;;;20.1;67.0
72124;BME280;63818;37.134;-8.548;2023-04-01T20:11:08;102268.7;;;20.1;67.2
72124;BME280;63818;37.134;-8.548;2023-04-01T20:16:00;102265.0;;;20.1;67.7
72124;BME280;63818;37.134;-8.548;2023-04-01T20:20:57;102276.3;;;20.1;67.3
72124;BME280;63818;37.134;-8.548;2023-04-01T20:25:48;102273.7;;;20.1;67.5
72124;BME280;63818;37.134;-8.548;2023-04-01T20:31:01;102291.4;;;20.0;67.7
72124;BME280;63818;37.134;-8.548;2023-04-01T20:35:57;102300.2;;;20.0;68.0
72124;BME280;63818;37.134;-8.548;2023-04-01T20:40:49;102300.2;;;20.0;68.6
72124;BME280;63818;37.134;-8.548;2023-04-01T20:45:48;102299.8;;;20.0;68.5
72124;BME280;63818;37.134;-8.548;2023-04-01T20:50:40;102303.2;;;20.0;68.5
72124;BME280;63818;37.134;-8.548;2023-04-01T20:56:17;102306.1;;;19.9;67.2
72124;BME280;63818;37.134;-8.548;2023-04-01T21:01:13;102330.0;;;19.9;66.7
72124;BME280;63818;37.134;-8.548;2023-04-01T21:07:52;102317.4;;;19.8;66.5
72124;BME280;63818;37.134;-8.548;2023-04-01T21:12:47;102320.8;;;19.8;66.7
72124;BME280;63818;37.134;-8.548;2023-04-01T21:17:44;102337.6;;;19.8;66.5
72124;BME280;63818;37.134;-8.548;2023-04-01T21:22:47;102323.2;;;19.8;66.0
72124;BME280;63818;37.134;-8.548;2023-04-01T21:27:59;102325.0;;;19.8;65.3
72124;BME280;63818;37.134;-8.548;2023-04-01T21:33:02;102324.8;;;19.7;65.1
72124;BME280;63818;37.134;-8.548;2023-04-01T21:37:58;102303.0;;;19.7;65.4
72124;BME280;63818;37.134;-8.548;2023-04-01T21:42:52;102305.6;;;19.8;64.9
72124;BME280;63818;37.134;-8.548;2023-04-01T21:47:55;102305.9;;;19.8;65.2
72124;BME280;63818;37.134;-8.548;2023-04-01T22:01:21;102296.6;;;19.8;65.0
72124;BME280;63818;37.134;-8.548;2023-04-01T22:06:17;102300.4;;;19.8;65.4
72124;BME280;63818;37.134;-8.548;2023-04-01T22:11:11;102292.9;;;19.7;65.8
72124;BME280;63818;37.134;-8.548;2023-04-01T22:16:06;102294.4;;;19.7;66.2
72124;BME280;63818;37.134;-8.548;2023-04-01T22:20:59;102295.8;;;19.7;66.8
72124;BME280;63818;37.134;-8.548;2023-04-01T22:30:49;102284.8;;;19.6;67.3
72124;BME280;63818;37.134;-8.548;2023-04-01T22:35:40;102270.9;;;19.6;67.9
72124;BME280;63818;37.134;-8.548;2023-04-01T22:40:34;102278.4;;;19.6;68.3
72124;BME280;63818;37.134;-8.548;2023-04-01T22:45:45;102277.4;;;19.6;68.8
72124;BME280;63818;37.134;-8.548;2023-04-01T22:50:37;102276.2;;;19.5;69.2
72124;BME280;63818;37.134;-8.548;2023-04-01T22:55:28;102279.2;;;19.5;69.9
72124;BME280;63818;37.134;-8.548;2023-04-01T23:00:20;102281.5;;;19.5;70.2
72124;BME280;63818;37.134;-8.548;2023-04-01T23:05:19;102275.6;;;19.5;70.7
72124;BME280;63818;37.134;-8.548;2023-04-01T23:10:16;102269.3;;;19.5;70.8
72124;BME280;63818;37.134;-8.548;2023-04-01T23:15:04;102257.4;;;19.4;70.7
72124;BME280;63818;37.134;-8.548;2023-04-01T23:19:54;102253.9;;;19.4;71.1
72124;BME280;63818;37.134;-8.548;2023-04-01T23:24:55;102251.4;;;19.5;70.4
72124;BME280;63818;37.134;-8.548;2023-04-01T23:29:46;102239.1;;;19.4;70.2
72124;BME280;63818;37.134;-8.548;2023-04-01T23:34:35;102236.3;;;19.4;70.1
72124;BME280;63818;37.134;-8.548;2023-04-01T23:39:25;102228.4;;;19.4;69.6
72124;BME280;63818;37.134;-8.548;2023-04-01T23:44:21;102227.3;;;19.4;69.5
72124;BME280;63818;37.134;-8.548;2023-04-01T23:49:14;102229.9;;;19.4;69.5
72124;BME280;63818;37.134;-8.548;2023-04-01T23:54:10;102222.7;;;19.3;69.5
72124;BME280;63818;37.134;-8.548;2023-04-01T23:58:58;102221.1;;;19.3;69.8
